createdAt,value
2018-11-26T00:01:46.677Z,6.00
2018-11-26T00:04:21.881Z,6.40
2018-11-26T00:06:51.500Z,6.03
2018-11-26T00:09:26.870Z,6.47
2018-11-26T00:11:56.412Z,6.23
2018-11-26T00:14:31.840Z,6.07
2018-11-26T00:17:01.255Z,5.00
2018-11-26T00:19:36.918Z,4.95
2018-11-26T00:22:06.774Z,4.55
2018-11-26T00:24:41.846Z,5.90
2018-11-26T00:27:11.783Z,7.03
2018-11-26T00:29:46.912Z,5.33
2018-11-26T00:32:16.251Z,6.17
2018-11-26T00:34:52.218Z,5.30
2018-11-26T00:37:21.567Z,5.87
2018-11-26T00:39:56.837Z,5.70
2018-11-26T00:42:26.270Z,5.58
2018-11-26T00:45:01.919Z,5.72
2018-11-26T00:47:31.907Z,6.00
2018-11-26T00:50:07.698Z,6.23
2018-11-26T00:52:39.993Z,5.55
2018-11-26T00:55:12.177Z,5.37
2018-11-26T00:57:42.099Z,4.60
2018-11-26T01:00:19.403Z,6.67
2018-11-26T01:02:48.825Z,5.92
2018-11-26T01:05:31.539Z,7.40
2018-11-26T01:08:00.923Z,6.03
2018-11-26T01:10:30.363Z,5.85
2018-11-26T01:12:59.703Z,6.50
2018-11-26T01:15:32.074Z,6.55
2018-11-26T01:18:02.042Z,5.53
2018-11-26T01:20:37.219Z,6.15
2018-11-26T01:23:07.026Z,5.95
2018-11-26T01:25:41.856Z,5.25
2018-11-26T01:28:11.326Z,5.50
2018-11-26T01:30:46.892Z,5.83
2018-11-26T01:33:16.308Z,4.90
2018-11-26T01:35:52.274Z,5.35
2018-11-26T01:38:21.633Z,5.78
2018-11-26T01:40:56.911Z,5.78
2018-11-26T01:43:26.256Z,5.40
2018-11-26T01:46:01.722Z,6.12
2018-11-26T01:48:31.110Z,6.10
2018-11-26T01:51:06.745Z,5.75
2018-11-26T01:53:35.883Z,5.20
2018-11-26T01:56:11.886Z,5.65
2018-11-26T01:58:41.395Z,5.00
2018-11-26T02:01:17.811Z,5.95
2018-11-26T02:03:47.360Z,5.17
2018-11-26T02:06:23.829Z,5.03
2018-11-26T02:08:53.332Z,5.65
2018-11-26T02:11:29.277Z,5.50
2018-11-26T02:13:59.260Z,5.28
2018-11-26T02:16:32.539Z,5.58
2018-11-26T02:19:01.981Z,5.70
2018-11-26T02:21:36.833Z,6.83
2018-11-26T02:24:06.513Z,4.72
2018-11-26T02:26:42.657Z,5.40
2018-11-26T02:29:12.019Z,5.87
2018-11-26T02:31:47.510Z,4.58
2018-11-26T02:34:16.944Z,5.08
2018-11-26T02:36:52.390Z,4.58
2018-11-26T02:39:22.049Z,4.47
2018-11-26T02:41:57.105Z,4.20
2018-11-26T02:44:28.606Z,4.00
2018-11-26T02:47:01.899Z,5.08
2018-11-26T02:49:32.646Z,4.05
2018-11-26T02:52:06.924Z,5.53
2018-11-26T02:54:36.330Z,4.53
2018-11-26T02:57:11.850Z,5.35
2018-11-26T02:59:41.326Z,4.40
2018-11-26T03:02:17.869Z,4.78
2018-11-26T03:04:47.814Z,4.78
2018-11-26T03:07:22.227Z,6.15
2018-11-26T03:09:51.652Z,4.25
2018-11-26T03:12:26.842Z,5.20
2018-11-26T03:14:56.254Z,4.95
2018-11-26T03:17:31.739Z,5.30
2018-11-26T03:20:01.162Z,5.12
2018-11-26T03:22:38.199Z,4.60
2018-11-26T03:25:09.124Z,5.35
2018-11-26T03:31:14.664Z,4.42
2018-11-26T03:33:48.226Z,5.47
2018-11-26T03:36:18.183Z,4.87
2018-11-26T03:38:53.839Z,4.90
2018-11-26T03:41:23.799Z,4.37
2018-11-26T03:43:59.370Z,4.55
2018-11-26T03:46:28.882Z,4.50
2018-11-26T03:49:03.189Z,4.30
2018-11-26T03:51:32.553Z,4.10
2018-11-26T03:54:10.805Z,3.85
2018-11-26T03:56:40.496Z,4.20
2018-11-26T03:59:13.133Z,4.43
2018-11-26T04:01:43.603Z,4.65
2018-11-26T04:04:17.953Z,4.53
2018-11-26T04:06:47.845Z,4.87
2018-11-26T04:09:23.478Z,4.95
2018-11-26T04:11:53.451Z,5.42
2018-11-26T04:14:28.870Z,4.15
2018-11-26T04:16:58.630Z,4.10
2018-11-26T04:19:32.984Z,4.03
2018-11-26T04:22:02.332Z,4.90
2018-11-26T04:24:38.031Z,4.28
2018-11-26T04:27:07.734Z,4.20
2018-11-26T04:29:42.785Z,5.03
2018-11-26T04:32:12.782Z,4.30
2018-11-26T04:34:48.623Z,4.20
2018-11-26T04:37:17.993Z,4.47
2018-11-26T04:39:53.250Z,4.35
2018-11-26T04:42:22.630Z,4.37
2018-11-26T04:44:57.921Z,4.08
2018-11-26T04:47:27.389Z,4.33
2018-11-26T04:50:03.064Z,4.10
2018-11-26T04:52:32.578Z,4.08
2018-11-26T04:55:10.207Z,4.13
2018-11-26T04:57:42.769Z,3.65
2018-11-26T05:00:14.734Z,3.30
2018-11-26T05:02:44.717Z,4.10
2018-11-26T05:05:17.937Z,5.30
2018-11-26T05:07:47.790Z,7.10
2018-11-26T05:10:23.138Z,7.75
2018-11-26T05:12:52.473Z,7.85
2018-11-26T05:15:28.183Z,8.35
2018-11-26T05:17:58.178Z,8.53
2018-11-26T05:20:32.862Z,8.08
2018-11-26T05:23:02.812Z,8.73
2018-11-26T05:25:39.412Z,8.25
2018-11-26T05:28:09.571Z,10.32
2018-11-26T05:30:43.286Z,8.88
2018-11-26T05:33:13.221Z,7.83
2018-11-26T05:35:48.113Z,8.55
2018-11-26T05:38:17.556Z,7.15
2018-11-26T05:40:54.323Z,8.35
2018-11-26T05:43:24.861Z,6.60
2018-11-26T05:45:58.097Z,9.18
2018-11-26T05:48:27.475Z,6.90
2018-11-26T05:51:03.844Z,8.50
2018-11-26T05:53:33.758Z,8.03
2018-11-26T05:56:07.926Z,6.47
2018-11-26T05:58:37.754Z,7.72
2018-11-26T06:01:14.505Z,6.90
2018-11-26T06:03:44.518Z,7.75
2018-11-26T06:06:18.073Z,7.00
2018-11-26T06:08:47.454Z,6.77
2018-11-26T06:11:22.854Z,7.55
2018-11-26T06:13:52.380Z,6.83
2018-11-26T06:16:30.218Z,7.05
2018-11-26T06:18:59.585Z,7.75
2018-11-26T06:21:32.750Z,8.15
2018-11-26T06:24:02.221Z,7.55
2018-11-26T06:26:37.865Z,6.83
2018-11-26T06:29:07.322Z,7.78
2018-11-26T06:31:42.874Z,7.40
2018-11-26T06:34:12.293Z,6.72
2018-11-26T06:36:47.851Z,7.53
2018-11-26T06:39:17.858Z,6.20
2018-11-26T06:41:54.006Z,6.90
2018-11-26T06:44:23.345Z,6.42
2018-11-26T06:46:57.795Z,5.97
2018-11-26T06:49:27.287Z,6.55
2018-11-26T06:52:04.257Z,5.45
2018-11-26T06:54:34.211Z,6.37
2018-11-26T06:59:39.348Z,5.95
2018-11-26T07:02:08.777Z,6.58
2018-11-26T07:04:48.053Z,5.62
2018-11-26T07:07:17.948Z,5.78
2018-11-26T07:09:47.398Z,5.95
2018-11-26T07:12:17.326Z,6.08
2018-11-26T07:14:47.221Z,6.20
2018-11-26T07:17:16.675Z,6.00
2018-11-26T07:19:46.622Z,6.42
2018-11-26T07:22:16.002Z,6.03
2018-11-26T07:24:45.895Z,6.28
2018-11-26T07:27:15.361Z,7.05
2018-11-26T07:29:44.762Z,5.67
2018-11-26T07:32:14.199Z,5.62
2018-11-26T07:34:43.576Z,6.42
2018-11-26T07:37:15.048Z,6.17
2018-11-26T07:39:46.691Z,6.22
2018-11-26T07:42:16.107Z,5.87
2018-11-26T07:44:55.143Z,6.12
2018-11-26T07:47:24.358Z,5.45
2018-11-26T07:49:54.327Z,5.53
2018-11-26T07:52:23.767Z,5.60
2018-11-26T07:54:53.806Z,5.87
2018-11-26T07:57:23.906Z,5.72
2018-11-26T07:59:53.946Z,5.70
2018-11-26T08:02:23.321Z,5.50
2018-11-26T08:04:52.726Z,5.85
2018-11-26T08:13:31.467Z,5.55
2018-11-26T08:16:00.813Z,5.70
2018-11-26T08:18:31.924Z,5.17
2018-11-26T08:21:01.316Z,5.87
2018-11-26T08:23:31.304Z,5.45
2018-11-26T08:26:01.160Z,5.53
2018-11-26T08:28:31.854Z,5.00
2018-11-26T08:31:01.608Z,5.45
2018-11-26T08:33:31.373Z,5.28
2018-11-26T08:38:45.960Z,4.85
2018-11-26T08:41:16.615Z,5.77
2018-11-26T08:43:51.659Z,6.05
2018-11-26T08:46:31.815Z,5.13
2018-11-26T08:49:02.433Z,5.20
2018-11-26T08:51:32.238Z,5.53
2018-11-26T08:54:02.029Z,5.87
2018-11-26T08:56:32.102Z,5.25
2018-11-26T08:59:01.903Z,5.70
2018-11-26T09:01:33.403Z,5.80
2018-11-26T09:09:32.910Z,5.62
2018-11-26T09:12:00.538Z,5.00
2018-11-26T09:14:31.707Z,4.90
2018-11-26T09:17:01.420Z,5.05
2018-11-26T09:19:31.064Z,5.40
2018-11-26T09:22:00.747Z,5.08
2018-11-26T09:24:30.447Z,5.45
2018-11-26T09:27:00.094Z,4.90
2018-11-26T09:29:30.323Z,5.80
2018-11-26T09:32:00.703Z,5.40
2018-11-26T09:34:40.773Z,5.65
2018-11-26T09:37:14.134Z,5.10
2018-11-26T09:39:43.892Z,5.12
2018-11-26T09:42:23.859Z,4.78
2018-11-26T09:44:53.500Z,5.60
2018-11-26T09:47:26.385Z,5.65
2018-11-26T09:49:56.279Z,5.17
2018-11-26T09:52:26.050Z,5.45
2018-11-26T09:54:56.698Z,5.50
2018-11-26T09:57:26.901Z,5.28
2018-11-26T09:59:58.100Z,5.10
2018-11-26T10:02:28.764Z,5.42
2018-11-26T10:05:11.245Z,5.75
2018-11-26T10:07:41.039Z,5.50
2018-11-26T10:13:13.778Z,5.47
2018-11-26T10:15:43.136Z,5.47
2018-11-26T10:18:13.484Z,5.60
2018-11-26T10:20:42.881Z,5.75
2018-11-26T10:23:12.256Z,5.60
2018-11-26T10:25:41.629Z,5.53
2018-11-26T10:28:11.017Z,4.72
2018-11-26T10:30:40.345Z,5.20
2018-11-26T10:33:14.649Z,5.58
2018-11-26T10:35:39.267Z,4.83
2018-11-26T10:38:08.692Z,4.90
2018-11-26T10:40:38.086Z,4.92
2018-11-26T10:43:11.577Z,4.90
2018-11-26T10:45:37.693Z,5.12
2018-11-26T10:48:07.838Z,4.83
2018-11-26T10:50:37.222Z,5.53
2018-11-26T10:53:06.801Z,5.05
2018-11-26T10:55:37.366Z,5.33
2018-11-26T10:58:07.081Z,5.47
2018-11-26T11:01:40.669Z,5.83
2018-11-26T11:04:10.214Z,5.40
2018-11-26T11:06:55.831Z,5.42
2018-11-26T11:09:22.074Z,4.83
2018-11-26T11:11:51.465Z,5.28
2018-11-26T11:14:20.854Z,5.62
2018-11-26T11:16:50.249Z,5.10
2018-11-26T11:19:19.643Z,5.40
2018-11-26T11:21:49.103Z,5.73
2018-11-26T11:24:19.050Z,5.83
2018-11-26T11:26:48.389Z,5.90
2018-11-26T11:29:18.307Z,5.33
2018-11-26T11:31:48.339Z,5.40
2018-11-26T11:34:17.511Z,5.57
2018-11-26T11:36:46.895Z,4.90
2018-11-26T11:39:16.317Z,5.87
2018-11-26T11:41:45.699Z,5.03
2018-11-26T11:44:15.123Z,5.60
2018-11-26T11:46:44.226Z,4.35
2018-11-26T11:49:14.120Z,5.47
2018-11-26T11:51:43.637Z,4.97
2018-11-26T11:56:53.874Z,4.30
2018-11-26T11:59:23.220Z,4.70
2018-11-26T12:01:54.547Z,4.87
2018-11-26T12:04:24.504Z,4.90
2018-11-26T12:06:54.029Z,4.40
2018-11-26T12:09:24.013Z,5.45
2018-11-26T12:11:53.344Z,5.33
2018-11-26T12:14:22.747Z,5.42
2018-11-26T12:16:53.016Z,5.37
2018-11-26T12:19:22.440Z,5.37
2018-11-26T12:21:51.874Z,4.90
2018-11-26T12:24:21.233Z,4.92
2018-11-26T12:26:50.595Z,4.70
2018-11-26T12:29:20.040Z,4.75
2018-11-26T12:31:50.952Z,4.78
2018-11-26T12:34:20.916Z,5.58
2018-11-26T12:40:20.176Z,4.92
2018-11-26T12:42:59.510Z,5.10
2018-11-26T12:45:31.196Z,5.03
2018-11-26T12:48:00.838Z,5.40
2018-11-26T12:53:40.338Z,5.17
2018-11-26T12:56:10.266Z,5.37
2018-11-26T12:58:52.531Z,4.80
2018-11-26T13:01:21.899Z,4.97
2018-11-26T13:03:51.910Z,5.67
2018-11-26T13:06:21.892Z,5.33
2018-11-26T13:08:51.335Z,5.20
2018-11-26T13:11:21.791Z,5.10
2018-11-26T13:13:51.147Z,4.65
2018-11-26T13:19:01.256Z,5.03
2018-11-26T13:21:30.642Z,4.93
2018-11-26T13:24:02.360Z,5.28
2018-11-26T13:26:32.258Z,4.90
2018-11-26T13:29:01.645Z,5.73
2018-11-26T13:31:35.393Z,4.87
2018-11-26T13:34:05.339Z,5.58
2018-11-26T13:36:35.216Z,5.50
2018-11-26T13:39:07.244Z,6.33
2018-11-26T13:41:36.734Z,5.50
2018-11-26T13:44:06.903Z,5.70
2018-11-26T13:46:36.532Z,5.78
2018-11-26T13:49:06.271Z,5.50
2018-11-26T13:51:36.186Z,5.80
2018-11-26T13:54:06.263Z,5.25
2018-11-26T13:56:35.703Z,5.97
2018-11-26T13:59:05.147Z,6.17
2018-11-26T14:13:48.099Z,5.30
2018-11-26T14:16:17.589Z,5.47
2018-11-26T14:18:46.961Z,6.07
2018-11-26T14:21:16.365Z,5.62
2018-11-26T14:23:46.263Z,5.42
2018-11-26T14:26:15.664Z,5.95
2018-11-26T14:28:45.041Z,4.83
2018-11-26T14:31:14.524Z,5.80
2018-11-26T14:33:43.928Z,5.15
2018-11-26T14:36:13.307Z,5.67
2018-11-26T14:38:42.735Z,5.55
2018-11-26T14:41:12.074Z,5.30
2018-11-26T14:43:41.653Z,6.30
2018-11-26T14:46:11.204Z,5.67
2018-11-26T14:48:40.693Z,5.63
2018-11-26T14:51:10.119Z,5.90
2018-11-26T14:53:39.561Z,5.97
2018-11-26T14:56:09.312Z,5.80
2018-11-26T14:58:46.182Z,5.70
2018-11-26T15:01:16.318Z,5.37
2018-11-26T15:04:02.019Z,5.43
2018-11-26T15:06:33.231Z,6.05
2018-11-26T15:09:08.659Z,6.28
2018-11-26T15:14:38.854Z,5.40
2018-11-26T15:17:19.327Z,5.35
2018-11-26T15:19:48.863Z,4.97
2018-11-26T15:28:28.184Z,4.95
2018-11-26T15:30:57.675Z,4.50
2018-11-26T15:33:36.927Z,4.30
2018-11-26T15:36:06.431Z,4.70
2018-11-26T15:38:36.379Z,4.78
2018-11-26T15:41:06.365Z,3.77
2018-11-26T15:43:35.844Z,4.60
2018-11-26T15:46:07.930Z,4.28
2018-11-26T15:48:37.652Z,4.00
2018-11-26T15:51:07.251Z,4.50
2018-11-26T15:53:49.713Z,4.50
2018-11-26T15:56:19.121Z,3.70
2018-11-26T15:58:51.400Z,3.62
2018-11-26T16:01:20.762Z,3.37
2018-11-26T16:03:50.214Z,3.33
2018-11-26T16:06:20.325Z,3.53
2018-11-26T16:08:49.752Z,3.80
2018-11-26T16:11:19.170Z,3.60
2018-11-26T16:13:48.687Z,4.00
2018-11-26T16:22:26.361Z,5.67
2018-11-26T16:25:01.062Z,4.28
2018-11-26T16:27:30.186Z,4.57
2018-11-26T16:29:59.596Z,3.57
2018-11-26T16:32:29.076Z,4.40
2018-11-26T16:34:58.517Z,3.70
2018-11-26T16:37:27.925Z,3.80
2018-11-26T16:39:58.702Z,3.42
2018-11-26T16:42:28.105Z,3.35
2018-11-26T16:44:57.512Z,3.40
2018-11-26T16:47:27.024Z,3.00
2018-11-26T16:49:56.386Z,3.27
2018-11-26T16:52:25.819Z,2.90
2018-11-26T16:54:55.336Z,2.90
2018-11-26T16:57:24.787Z,3.08
2018-11-26T16:59:54.182Z,2.50
2018-11-26T17:02:24.487Z,2.60
2018-11-26T17:04:54.179Z,3.83
2018-11-26T17:07:24.099Z,3.08
2018-11-26T17:09:53.560Z,4.75
2018-11-26T17:12:22.979Z,4.62
2018-11-26T17:18:07.651Z,5.58
2018-11-26T17:20:45.512Z,4.72
2018-11-26T17:23:15.516Z,4.65
2018-11-26T17:25:57.000Z,4.97
2018-11-26T17:31:33.971Z,5.70
2018-11-26T17:34:13.169Z,6.20
2018-11-26T17:36:43.128Z,5.75
2018-11-26T17:39:12.729Z,5.30
2018-11-26T17:41:42.880Z,6.20
2018-11-26T17:44:12.983Z,6.05
2018-11-26T17:46:42.419Z,7.37
2018-11-26T17:49:11.905Z,7.23
2018-11-26T17:51:43.271Z,5.80
2018-11-26T17:54:30.454Z,5.70
2018-11-26T17:56:59.966Z,6.08
2018-11-26T17:59:37.964Z,5.72
2018-11-26T18:02:07.791Z,5.80
2018-11-26T18:04:37.289Z,5.58
2018-11-26T18:07:15.092Z,5.37
2018-11-26T18:09:44.564Z,5.17
2018-11-26T18:12:14.599Z,4.50
2018-11-26T18:14:44.064Z,5.42
2018-11-26T18:17:13.447Z,5.22
2018-11-26T18:19:46.902Z,5.05
2018-11-26T18:22:16.563Z,5.33
2018-11-26T18:24:46.016Z,5.42
2018-11-26T18:27:25.614Z,6.70
2018-11-26T18:29:55.125Z,6.33
2018-11-26T18:32:27.424Z,6.17
2018-11-26T18:34:57.371Z,6.75
2018-11-26T18:37:26.772Z,6.37
2018-11-26T18:39:56.958Z,6.30
2018-11-26T18:42:26.906Z,5.60
2018-11-26T18:44:56.470Z,5.85
2018-11-26T18:47:26.068Z,5.87
2018-11-26T18:49:56.086Z,5.33
2018-11-26T18:52:26.137Z,6.12
2018-11-26T18:54:55.622Z,6.33
2018-11-26T18:57:25.082Z,6.10
2018-11-26T18:59:54.508Z,6.17
2018-11-26T19:02:24.500Z,6.15
2018-11-26T19:04:53.950Z,5.92
2018-11-26T19:07:32.467Z,5.78
2018-11-26T19:10:01.970Z,5.15
2018-11-26T19:12:35.499Z,5.37
2018-11-26T19:15:08.858Z,5.20
2018-11-26T19:17:38.290Z,5.17
2018-11-26T19:20:11.208Z,5.23
2018-11-26T19:22:52.539Z,4.87
2018-11-26T19:25:22.563Z,4.30
2018-11-26T19:27:52.555Z,4.67
2018-11-26T19:30:23.264Z,4.43
2018-11-26T19:32:51.479Z,4.30
2018-11-26T19:35:20.870Z,4.37
2018-11-26T19:37:50.398Z,3.90
2018-11-26T19:40:20.183Z,3.55
2018-11-26T19:42:49.670Z,4.10
2018-11-26T19:45:20.534Z,3.55
2018-11-26T19:50:55.143Z,3.22
2018-11-26T19:53:24.571Z,2.83
2018-11-26T19:55:54.575Z,3.20
2018-11-26T19:58:24.136Z,2.80
2018-11-26T20:01:08.908Z,3.05
2018-11-26T20:03:41.362Z,3.08
2018-11-26T20:06:15.501Z,2.67
2018-11-26T20:08:46.607Z,3.20
2018-11-26T20:11:22.803Z,3.55
2018-11-26T20:13:52.797Z,3.47
2018-11-26T20:16:25.840Z,3.17
2018-11-26T20:18:55.492Z,3.37
2018-11-26T20:21:24.916Z,3.57
2018-11-26T20:23:59.391Z,3.30
2018-11-26T20:26:28.869Z,2.98
2018-11-26T20:29:06.837Z,2.90
2018-11-26T20:31:36.346Z,3.35
2018-11-26T20:34:06.096Z,3.12
2018-11-26T20:36:35.714Z,3.17
2018-11-26T20:39:08.429Z,3.10
2018-11-26T20:41:38.914Z,3.52
2018-11-26T20:44:09.686Z,3.40
2018-11-26T20:46:50.869Z,3.05
2018-11-26T20:49:20.261Z,3.20
2018-11-26T20:51:49.655Z,2.60
2018-11-26T20:54:19.600Z,2.60
2018-11-26T20:56:49.011Z,2.90
2018-11-26T20:59:19.061Z,2.70
2018-11-26T21:02:01.410Z,3.92
2018-11-26T21:04:35.740Z,4.13
2018-11-26T21:07:05.438Z,4.15
2018-11-26T21:09:34.875Z,4.28
2018-11-26T21:12:04.914Z,4.15
2018-11-26T21:17:22.800Z,6.03
2018-11-26T21:19:57.153Z,6.22
2018-11-26T21:22:44.597Z,7.22
2018-11-26T21:25:15.708Z,6.30
2018-11-26T21:27:45.201Z,5.78
2018-11-26T21:30:16.957Z,5.75
2018-11-26T21:32:47.689Z,5.30
2018-11-26T21:35:20.712Z,4.67
2018-11-26T21:37:52.124Z,4.85
2018-11-26T21:40:31.352Z,4.80
2018-11-26T21:43:01.025Z,4.35
2018-11-26T21:46:05.347Z,4.90
2018-11-26T21:51:50.424Z,5.35
2018-11-26T21:54:29.250Z,4.72
2018-11-26T21:56:59.596Z,4.90
2018-11-26T21:59:29.417Z,5.00
2018-11-26T22:01:59.544Z,4.78
2018-11-26T22:04:28.970Z,7.03
2018-11-26T22:06:58.466Z,7.08
2018-11-26T22:09:28.097Z,6.83
2018-11-26T22:11:57.763Z,6.83
2018-11-26T22:14:31.033Z,6.22
2018-11-26T22:17:00.447Z,5.92
2018-11-26T22:19:40.081Z,5.85
2018-11-26T22:22:10.003Z,5.05
2018-11-26T22:24:39.463Z,4.97
2018-11-26T22:27:08.900Z,5.67
2018-11-26T22:29:38.301Z,4.62
2018-11-26T22:32:08.328Z,5.07
2018-11-26T22:34:40.979Z,4.45
2018-11-26T22:37:10.856Z,4.65
2018-11-26T22:39:42.401Z,4.40
2018-11-26T22:42:12.333Z,4.72
2018-11-26T22:44:51.916Z,5.17
2018-11-26T22:47:21.315Z,4.72
2018-11-26T22:49:51.296Z,4.72
2018-11-26T22:52:21.492Z,4.45
2018-11-26T22:54:51.095Z,4.95
2018-11-26T22:57:20.600Z,4.20
2018-11-26T22:59:50.064Z,4.37
2018-11-26T23:02:20.023Z,4.30
2018-11-26T23:04:49.439Z,4.83
2018-11-26T23:07:18.864Z,4.45
2018-11-26T23:09:48.788Z,4.17
2018-11-26T23:12:18.752Z,4.60
2018-11-26T23:14:48.783Z,3.83
2018-11-26T23:17:18.264Z,4.20
2018-11-26T23:19:47.760Z,4.50
2018-11-26T23:22:17.127Z,3.58
2018-11-26T23:24:46.584Z,3.55
2018-11-26T23:27:26.620Z,4.00
2018-11-26T23:29:56.597Z,4.00
2018-11-26T23:32:29.690Z,3.67
2018-11-26T23:34:59.345Z,3.60
2018-11-26T23:37:28.761Z,3.87
2018-11-26T23:39:58.141Z,3.90
2018-11-26T23:42:28.097Z,3.77
2018-11-26T23:44:57.493Z,4.17
2018-11-26T23:47:26.979Z,3.75
2018-11-26T23:49:56.349Z,3.52
2018-11-26T23:52:26.311Z,3.27
2018-11-26T23:54:56.284Z,3.40
2018-11-26T23:57:25.610Z,3.05
2018-11-26T23:59:55.096Z,3.77
